createdAt,value
2017-09-18T00:00:29.535Z,100822.38
2017-09-18T00:03:00.992Z,100817.61
2017-09-18T00:05:36.907Z,100809.02
2017-09-18T00:08:11.466Z,100812.50
2017-09-18T00:10:45.685Z,100804.33
2017-09-18T00:13:17.142Z,100803.04
2017-09-18T00:15:49.279Z,100800.92
2017-09-18T00:18:19.921Z,100803.09
2017-09-18T00:20:54.168Z,100797.58
2017-09-18T00:23:27.704Z,100804.88
2017-09-18T00:25:59.753Z,100804.13
2017-09-18T00:28:32.660Z,100805.05
2017-09-18T00:31:03.718Z,100795.17
2017-09-18T00:33:34.972Z,100800.36
2017-09-18T00:36:06.105Z,100803.05
2017-09-18T00:38:42.822Z,100800.48
2017-09-18T00:41:14.573Z,100807.32
2017-09-18T00:43:46.760Z,100807.54
2017-09-18T00:46:17.360Z,100807.13
2017-09-18T00:48:48.372Z,100805.88
2017-09-18T00:51:19.037Z,100811.48
2017-09-18T00:53:51.002Z,100812.84
2017-09-18T00:56:23.216Z,100815.09
2017-09-18T00:58:56.413Z,100809.98
2017-09-18T01:01:28.052Z,100813.42
2017-09-18T01:04:00.335Z,100812.67
2017-09-18T01:06:31.882Z,100809.36
2017-09-18T01:09:04.298Z,100812.84
2017-09-18T01:11:37.472Z,100807.74
2017-09-18T01:14:10.553Z,100807.41
2017-09-18T01:16:42.427Z,100804.95
2017-09-18T01:19:14.040Z,100808.03
2017-09-18T01:21:45.997Z,100804.29
2017-09-18T01:24:17.925Z,100799.15
2017-09-18T01:26:50.518Z,100798.78
2017-09-18T01:29:25.442Z,100802.68
2017-09-18T01:31:58.670Z,100795.12
2017-09-18T01:34:29.723Z,100805.45
2017-09-18T01:37:02.958Z,100803.91
2017-09-18T01:39:39.025Z,100807.44
2017-09-18T01:42:12.676Z,100807.56
2017-09-18T01:44:48.388Z,100804.28
2017-09-18T01:47:23.919Z,100806.06
2017-09-18T01:49:55.332Z,100802.36
2017-09-18T01:52:27.688Z,100793.86
2017-09-18T01:55:01.416Z,100795.84
2017-09-18T01:57:35.319Z,100800.20
2017-09-18T02:00:07.071Z,100805.41
2017-09-18T02:02:39.359Z,100809.52
2017-09-18T02:05:13.498Z,100802.00
2017-09-18T02:07:44.812Z,100801.70
2017-09-18T02:10:17.881Z,100806.09
2017-09-18T02:12:52.782Z,100803.15
2017-09-18T02:15:26.272Z,100806.70
2017-09-18T02:17:58.201Z,100803.01
2017-09-18T02:20:29.377Z,100809.05
2017-09-18T02:23:02.164Z,100806.14
2017-09-18T02:25:32.936Z,100813.97
2017-09-18T02:28:05.334Z,100812.28
2017-09-18T02:30:39.944Z,100814.50
2017-09-18T02:33:15.281Z,100808.98
2017-09-18T02:35:50.406Z,100805.29
2017-09-18T02:38:23.490Z,100809.59
2017-09-18T02:40:59.742Z,100804.13
2017-09-18T02:43:35.055Z,100808.92
2017-09-18T02:46:08.091Z,100805.56
2017-09-18T02:48:45.508Z,100803.94
2017-09-18T02:51:17.559Z,100807.38
2017-09-18T02:53:50.259Z,100813.00
2017-09-18T02:56:21.830Z,100806.66
2017-09-18T02:58:53.802Z,100802.84
2017-09-18T03:01:31.838Z,100803.30
2017-09-18T03:04:04.616Z,100798.70
2017-09-18T03:06:37.522Z,100796.17
2017-09-18T03:09:08.105Z,100795.75
2017-09-18T03:11:39.537Z,100791.45
2017-09-18T03:14:11.548Z,100797.45
2017-09-18T03:16:42.375Z,100796.70
2017-09-18T03:19:16.058Z,100795.83
2017-09-18T03:21:48.219Z,100800.59
2017-09-18T03:24:21.036Z,100801.04
2017-09-18T03:26:55.122Z,100797.11
2017-09-18T03:29:27.175Z,100800.09
2017-09-18T03:32:02.496Z,100795.41
2017-09-18T03:34:37.876Z,100807.88
2017-09-18T03:37:08.953Z,100804.81
2017-09-18T03:39:41.403Z,100811.69
2017-09-18T03:42:18.441Z,100813.02
2017-09-18T03:44:50.972Z,100814.67
2017-09-18T03:47:23.315Z,100823.70
2017-09-18T03:49:56.286Z,100827.93
2017-09-18T03:52:30.716Z,100820.27
2017-09-18T03:55:02.885Z,100828.38
2017-09-18T03:57:35.107Z,100821.55
2017-09-18T04:00:05.848Z,100819.39
2017-09-18T04:02:34.909Z,100830.12
2017-09-18T04:05:08.848Z,100825.36
2017-09-18T04:07:39.292Z,100825.85
2017-09-18T04:10:15.376Z,100823.66
2017-09-18T04:12:48.227Z,100821.59
2017-09-18T04:15:22.700Z,100819.43
2017-09-18T04:17:56.539Z,100822.56
2017-09-18T04:20:29.556Z,100809.84
2017-09-18T04:23:00.693Z,100816.26
2017-09-18T04:25:33.147Z,100816.14
2017-09-18T04:28:05.188Z,100816.59
2017-09-18T04:30:41.073Z,100817.92
2017-09-18T04:33:16.949Z,100830.76
2017-09-18T04:35:48.094Z,100828.27
2017-09-18T04:38:18.894Z,100827.33
2017-09-18T04:40:51.097Z,100826.95
2017-09-18T04:43:22.365Z,100830.80
2017-09-18T04:45:54.508Z,100830.76
2017-09-18T04:48:27.532Z,100830.34
2017-09-18T04:51:02.388Z,100832.88
2017-09-18T04:53:37.437Z,100837.14
2017-09-18T04:56:09.898Z,100840.23
2017-09-18T04:58:42.060Z,100839.26
2017-09-18T05:01:16.437Z,100846.58
2017-09-18T05:03:49.659Z,100845.75
2017-09-18T05:06:33.621Z,100847.91
2017-09-18T05:09:05.488Z,100845.34
2017-09-18T05:11:37.307Z,100841.98
2017-09-18T05:14:18.159Z,100853.05
2017-09-18T05:16:59.619Z,100856.44
2017-09-18T05:19:31.730Z,100849.16
2017-09-18T05:22:04.743Z,100855.61
2017-09-18T05:24:36.211Z,100852.13
2017-09-18T05:27:08.093Z,100848.32
2017-09-18T05:29:40.830Z,100851.83
2017-09-18T05:32:18.482Z,100854.02
2017-09-18T05:34:52.365Z,100856.22
2017-09-18T05:37:24.392Z,100856.66
2017-09-18T05:39:58.456Z,100854.13
2017-09-18T05:42:31.345Z,100854.59
2017-09-18T05:45:04.186Z,100853.72
2017-09-18T05:47:36.374Z,100854.17
2017-09-18T05:50:08.204Z,100854.70
2017-09-18T05:52:39.782Z,100846.23
2017-09-18T05:55:11.583Z,100848.84
2017-09-18T05:57:45.828Z,100850.62
2017-09-18T06:00:17.671Z,100852.77
2017-09-18T06:02:52.008Z,100848.16
2017-09-18T06:05:25.084Z,100849.41
2017-09-18T06:07:58.436Z,100849.94
2017-09-18T06:10:32.162Z,100846.91
2017-09-18T06:13:05.595Z,100846.98
2017-09-18T06:15:38.067Z,100844.00
2017-09-18T06:18:09.999Z,100843.14
2017-09-18T06:20:42.386Z,100849.21
2017-09-18T06:23:16.548Z,100847.06
2017-09-18T06:25:48.286Z,100853.48
2017-09-18T06:28:21.241Z,100852.61
2017-09-18T06:30:54.874Z,100858.65
2017-09-18T06:33:28.023Z,100863.33
2017-09-18T06:36:02.548Z,100863.70
2017-09-18T06:38:39.072Z,100862.39
2017-09-18T06:41:11.361Z,100867.52
2017-09-18T06:43:45.312Z,100865.00
2017-09-18T06:46:19.224Z,100864.50
2017-09-18T06:48:50.493Z,100864.05
2017-09-18T06:51:22.669Z,100865.27
2017-09-18T06:53:56.601Z,100860.92
2017-09-18T06:56:28.811Z,100860.43
2017-09-18T06:59:01.803Z,100856.05
2017-09-18T07:01:37.433Z,100863.72
2017-09-18T07:04:09.637Z,100869.66
2017-09-18T07:06:42.582Z,100867.35
2017-09-18T07:09:18.607Z,100875.36
2017-09-18T07:11:51.943Z,100874.87
2017-09-18T07:14:23.209Z,100874.27
2017-09-18T07:16:55.587Z,100873.70
2017-09-18T07:19:27.398Z,100869.73
2017-09-18T07:21:57.864Z,100871.73
2017-09-18T07:24:31.730Z,100874.65
2017-09-18T07:27:07.434Z,100876.20
2017-09-18T07:29:40.211Z,100878.61
2017-09-18T07:32:11.924Z,100880.62
2017-09-18T07:34:44.910Z,100883.08
2017-09-18T07:37:16.797Z,100873.94
2017-09-18T07:39:50.603Z,100883.59
2017-09-18T07:42:26.039Z,100879.63
2017-09-18T07:44:57.915Z,100876.84
2017-09-18T07:47:35.332Z,100876.72
2017-09-18T07:50:07.416Z,100873.99
2017-09-18T07:52:40.871Z,100875.54
2017-09-18T07:55:16.392Z,100869.37
2017-09-18T07:57:49.167Z,100885.47
2017-09-18T08:00:22.157Z,100881.42
2017-09-18T08:02:54.684Z,100886.66
2017-09-18T08:05:27.663Z,100878.67
2017-09-18T08:08:01.335Z,100886.15
2017-09-18T08:10:33.376Z,100883.76
2017-09-18T08:13:07.007Z,100887.37
2017-09-18T08:15:39.892Z,100890.16
2017-09-18T08:18:13.968Z,100891.58
2017-09-18T08:20:49.021Z,100891.34
2017-09-18T08:23:20.689Z,100894.53
2017-09-18T08:25:52.562Z,100890.81
2017-09-18T08:28:24.947Z,100886.28
2017-09-18T08:30:55.799Z,100888.19
2017-09-18T08:33:26.928Z,100889.19
2017-09-18T08:36:00.168Z,100888.06
2017-09-18T08:38:33.561Z,100891.19
2017-09-18T08:41:05.864Z,100889.19
2017-09-18T08:43:37.780Z,100888.39
2017-09-18T08:46:11.808Z,100883.73
2017-09-18T08:48:46.084Z,100880.36
2017-09-18T08:51:22.045Z,100885.13
2017-09-18T08:53:53.957Z,100887.69
2017-09-18T08:56:26.723Z,100889.91
2017-09-18T08:58:58.873Z,100892.59
2017-09-18T09:01:32.436Z,100889.72
2017-09-18T09:04:05.485Z,100892.31
2017-09-18T09:06:37.639Z,100883.77
2017-09-18T09:09:12.505Z,100883.83
2017-09-18T09:11:45.075Z,100883.56
2017-09-18T09:14:17.181Z,100887.98
2017-09-18T09:16:45.883Z,100886.76
2017-09-18T09:19:14.569Z,100884.69
2017-09-18T09:21:47.541Z,100887.81
2017-09-18T09:24:19.941Z,100881.64
2017-09-18T09:26:52.798Z,100888.98
2017-09-18T09:29:24.568Z,100888.45
2017-09-18T09:31:55.782Z,100892.05
2017-09-18T09:34:28.231Z,100890.09
2017-09-18T09:37:00.120Z,100889.92
2017-09-18T09:39:35.037Z,100889.28
2017-09-18T09:42:08.515Z,100889.88
2017-09-18T09:44:45.118Z,100900.14
2017-09-18T09:47:17.753Z,100894.75
2017-09-18T09:49:52.125Z,100900.51
2017-09-18T09:52:25.728Z,100901.69
2017-09-18T09:54:58.243Z,100906.11
2017-09-18T09:57:30.640Z,100909.94
2017-09-18T10:00:03.082Z,100901.55
2017-09-18T10:02:36.885Z,100903.66
2017-09-18T10:05:10.042Z,100901.41
2017-09-18T10:07:44.487Z,100908.03
2017-09-18T10:10:17.762Z,100907.06
2017-09-18T10:12:50.814Z,100905.17
2017-09-18T10:15:22.898Z,100904.19
2017-09-18T10:17:52.988Z,100906.59
2017-09-18T10:20:25.832Z,100903.08
2017-09-18T10:22:59.021Z,100908.16
2017-09-18T10:25:30.881Z,100907.03
2017-09-18T10:28:03.439Z,100913.53
2017-09-18T10:30:38.963Z,100917.30
2017-09-18T10:33:11.824Z,100914.63
2017-09-18T10:35:47.493Z,100920.16
2017-09-18T10:38:18.689Z,100918.00
2017-09-18T10:40:49.739Z,100916.52
2017-09-18T10:43:22.207Z,100922.51
2017-09-18T10:45:55.006Z,100914.45
2017-09-18T10:48:29.834Z,100916.05
2017-09-18T10:51:01.305Z,100920.66
2017-09-18T10:53:34.580Z,100921.80
2017-09-18T10:56:06.476Z,100920.00
2017-09-18T10:58:39.728Z,100925.02
2017-09-18T11:01:12.313Z,100916.25
2017-09-18T11:03:44.694Z,100917.44
2017-09-18T11:06:16.172Z,100917.25
2017-09-18T11:08:47.713Z,100922.03
2017-09-18T11:11:19.762Z,100911.53
2017-09-18T11:13:53.754Z,100918.91
2017-09-18T11:16:27.269Z,100920.77
2017-09-18T11:18:59.052Z,100914.11
2017-09-18T11:21:32.590Z,100913.09
2017-09-18T11:24:06.482Z,100904.92
2017-09-18T11:26:39.565Z,100903.14
2017-09-18T11:29:12.593Z,100908.16
2017-09-18T11:31:45.174Z,100907.22
2017-09-18T11:34:19.428Z,100916.89
2017-09-18T11:36:50.989Z,100916.33
2017-09-18T11:39:22.927Z,100913.09
2017-09-18T11:41:53.586Z,100914.94
2017-09-18T11:44:28.504Z,100910.08
2017-09-18T11:47:01.394Z,100911.55
2017-09-18T11:49:35.447Z,100911.27
2017-09-18T11:52:07.436Z,100918.05
2017-09-18T11:54:39.126Z,100917.48
2017-09-18T11:57:11.038Z,100912.02
2017-09-18T11:59:48.073Z,100912.62
2017-09-18T12:02:20.889Z,100915.41
2017-09-18T12:04:52.852Z,100911.68
2017-09-18T12:07:25.072Z,100912.82
2017-09-18T12:09:57.642Z,100915.20
2017-09-18T12:12:29.782Z,100912.83
2017-09-18T12:15:03.563Z,100919.64
2017-09-18T12:17:35.843Z,100913.28
2017-09-18T12:20:09.967Z,100912.97
2017-09-18T12:22:45.121Z,100907.53
2017-09-18T12:25:17.373Z,100909.61
2017-09-18T12:27:49.795Z,100911.26
2017-09-18T12:30:21.724Z,100908.91
2017-09-18T12:32:55.416Z,100909.59
2017-09-18T12:35:27.991Z,100910.36
2017-09-18T12:38:02.458Z,100914.61
2017-09-18T12:40:40.317Z,100916.11
2017-09-18T12:43:18.010Z,100915.63
2017-09-18T12:45:53.904Z,100916.66
2017-09-18T12:48:26.582Z,100915.31
2017-09-18T12:50:58.569Z,100919.66
2017-09-18T12:53:29.961Z,100912.25
2017-09-18T12:56:03.220Z,100911.33
2017-09-18T12:58:37.275Z,100909.88
2017-09-18T13:01:13.389Z,100913.63
2017-09-18T13:03:46.225Z,100913.01
2017-09-18T13:06:19.505Z,100909.95
2017-09-18T13:08:50.439Z,100907.73
2017-09-18T13:11:23.528Z,100911.87
2017-09-18T13:13:56.187Z,100910.39
2017-09-18T13:16:30.503Z,100913.11
2017-09-18T13:19:04.488Z,100909.67
2017-09-18T13:21:36.556Z,100908.40
2017-09-18T13:24:10.097Z,100916.97
2017-09-18T13:26:41.856Z,100919.51
2017-09-18T13:29:14.032Z,100925.20
2017-09-18T13:31:44.998Z,100923.44
2017-09-18T13:34:19.913Z,100920.39
2017-09-18T13:36:53.942Z,100920.70
2017-09-18T13:39:26.983Z,100927.09
2017-09-18T13:41:58.387Z,100927.88
2017-09-18T13:44:32.382Z,100927.98
2017-09-18T13:47:06.145Z,100927.98
2017-09-18T13:49:38.738Z,100930.93
2017-09-18T13:52:11.355Z,100936.94
2017-09-18T13:54:45.605Z,100931.91
2017-09-18T13:57:20.206Z,100930.22
2017-09-18T13:59:56.924Z,100929.92
2017-09-18T14:02:29.528Z,100923.10
2017-09-18T14:05:00.703Z,100925.80
2017-09-18T14:07:33.741Z,100922.53
2017-09-18T14:10:10.560Z,100926.98
2017-09-18T14:12:39.949Z,100921.88
2017-09-18T14:15:12.906Z,100920.38
2017-09-18T14:17:46.348Z,100915.00
2017-09-18T14:20:19.091Z,100904.93
2017-09-18T14:22:52.087Z,100914.03
2017-09-18T14:25:23.867Z,100913.78
2017-09-18T14:27:55.349Z,100910.83
2017-09-18T14:30:26.555Z,100908.34
2017-09-18T14:32:59.648Z,100908.91
2017-09-18T14:35:32.897Z,100910.20
2017-09-18T14:38:07.089Z,100907.67
2017-09-18T14:40:39.222Z,100912.33
2017-09-18T14:43:13.846Z,100913.62
2017-09-18T14:45:44.957Z,100913.11
2017-09-18T14:48:17.519Z,100912.53
2017-09-18T14:50:51.862Z,100913.16
2017-09-18T14:53:24.143Z,100912.74
2017-09-18T14:55:59.008Z,100906.58
2017-09-18T14:58:32.893Z,100914.69
2017-09-18T15:01:03.923Z,100910.34
2017-09-18T15:03:34.717Z,100910.99
2017-09-18T15:06:07.833Z,100903.84
2017-09-18T15:08:42.131Z,100908.80
2017-09-18T15:11:15.173Z,100908.87
2017-09-18T15:13:48.250Z,100905.34
2017-09-18T15:16:20.716Z,100905.96
2017-09-18T15:18:53.825Z,100900.63
2017-09-18T15:21:27.000Z,100904.33
2017-09-18T15:24:02.246Z,100904.75
2017-09-18T15:26:36.375Z,100905.98
2017-09-18T15:29:09.051Z,100907.52
2017-09-18T15:31:40.542Z,100909.28
2017-09-18T15:34:15.029Z,100907.78
2017-09-18T15:36:47.858Z,100915.23
2017-09-18T15:39:20.981Z,100913.22
2017-09-18T15:41:53.718Z,100911.69
2017-09-18T15:44:24.670Z,100918.63
2017-09-18T15:47:00.238Z,100918.86
2017-09-18T15:49:32.704Z,100926.52
2017-09-18T15:52:04.867Z,100925.77
2017-09-18T15:54:37.036Z,100929.34
2017-09-18T15:57:09.613Z,100922.81
2017-09-18T15:59:41.350Z,100930.48
2017-09-18T16:02:19.019Z,100925.77
2017-09-18T16:04:51.773Z,100925.52
2017-09-18T16:07:23.212Z,100927.44
2017-09-18T16:10:00.682Z,100928.06
2017-09-18T16:12:38.506Z,100931.69
2017-09-18T16:15:19.443Z,100928.84
2017-09-18T16:18:05.344Z,100925.91
2017-09-18T16:20:49.775Z,100927.35
2017-09-18T16:23:23.994Z,100928.80
2017-09-18T16:26:07.426Z,100933.35
2017-09-18T16:28:50.247Z,100929.11
2017-09-18T16:31:28.762Z,100929.69
2017-09-18T16:34:06.944Z,100927.26
2017-09-18T16:36:40.456Z,100932.53
2017-09-18T16:39:27.477Z,100928.39
2017-09-18T16:42:02.371Z,100928.61
2017-09-18T16:47:24.321Z,100933.67
2017-09-18T16:50:00.352Z,100938.22
2017-09-18T16:52:35.891Z,100937.02
2017-09-18T16:55:14.136Z,100944.48
2017-09-18T16:57:48.105Z,100944.69
2017-09-18T17:00:20.573Z,100952.13
2017-09-18T17:02:53.159Z,100951.86
2017-09-18T17:10:51.366Z,100951.81
2017-09-18T17:16:04.239Z,100961.16
2017-09-18T17:18:38.158Z,100957.39
2017-09-18T17:21:19.621Z,100954.50
2017-09-18T17:23:52.660Z,100953.40
2017-09-18T17:26:24.533Z,100955.67
2017-09-18T17:31:41.271Z,100970.14
2017-09-18T17:34:17.040Z,100964.61
2017-09-18T17:36:56.568Z,100965.63
2017-09-18T17:39:41.673Z,100961.48
2017-09-18T17:42:19.722Z,100965.87
2017-09-18T17:44:56.206Z,100968.19
2017-09-18T17:47:33.465Z,100972.13
2017-09-18T17:50:11.712Z,100975.27
2017-09-18T17:52:46.849Z,100966.79
2017-09-18T17:55:30.321Z,100970.81
2017-09-18T17:58:12.231Z,100967.92
2017-09-18T18:00:55.237Z,100967.62
2017-09-18T18:03:37.907Z,100971.22
2017-09-18T18:06:20.549Z,100968.78
2017-09-18T18:11:37.272Z,100973.79
2017-09-18T18:14:14.826Z,100980.80
2017-09-18T18:16:50.691Z,100980.48
2017-09-18T18:19:26.932Z,100986.67
2017-09-18T18:22:00.186Z,100986.40
2017-09-18T18:24:38.702Z,100984.34
2017-09-18T18:27:14.451Z,100989.37
2017-09-18T18:29:46.577Z,100983.42
2017-09-18T18:32:22.366Z,100992.33
2017-09-18T18:34:57.260Z,100989.81
2017-09-18T18:37:36.874Z,100992.95
2017-09-18T18:40:11.812Z,100997.73
2017-09-18T18:42:45.122Z,100990.96
2017-09-18T18:45:18.584Z,100995.30
2017-09-18T18:47:50.917Z,100997.09
2017-09-18T18:50:23.815Z,100999.72
2017-09-18T18:52:53.868Z,101003.27
2017-09-18T18:55:24.005Z,101002.50
2017-09-18T18:57:57.129Z,101000.10
2017-09-18T19:00:27.977Z,101007.06
2017-09-18T19:03:02.227Z,101008.12
2017-09-18T19:05:33.439Z,101009.16
2017-09-18T19:10:46.475Z,101011.22
2017-09-18T19:13:20.329Z,101008.93
2017-09-18T19:15:53.102Z,101006.06
2017-09-18T19:18:25.199Z,101012.70
2017-09-18T19:20:58.370Z,101015.50
2017-09-18T19:23:32.037Z,101011.37
2017-09-18T19:26:03.994Z,101012.05
2017-09-18T19:28:36.065Z,101012.23
2017-09-18T19:31:07.598Z,101011.09
2017-09-18T19:33:38.841Z,101012.69
2017-09-18T19:36:17.234Z,101011.90
2017-09-18T19:38:47.745Z,101016.73
2017-09-18T19:41:18.143Z,101019.91
2017-09-18T19:43:50.115Z,101013.55
2017-09-18T19:46:26.740Z,101013.31
2017-09-18T19:49:00.020Z,101013.91
2017-09-18T19:51:31.217Z,101017.05
2017-09-18T19:54:00.793Z,101015.47
2017-09-18T19:56:29.640Z,101017.80
2017-09-18T19:58:59.647Z,101017.08
2017-09-18T20:01:29.421Z,101018.97
2017-09-18T20:04:00.199Z,101019.52
2017-09-18T20:06:29.997Z,101015.44
2017-09-18T20:09:03.224Z,101026.27
2017-09-18T20:11:40.447Z,101022.98
2017-09-18T20:14:12.532Z,101024.45
2017-09-18T20:16:43.396Z,101025.12
2017-09-18T20:19:16.482Z,101026.13
2017-09-18T20:21:47.444Z,101017.37
2017-09-18T20:24:22.391Z,101018.38
2017-09-18T20:26:53.559Z,101014.72
2017-09-18T20:29:25.317Z,101011.98
2017-09-18T20:31:56.515Z,101015.23
2017-09-18T20:34:27.926Z,101012.83
2017-09-18T20:37:01.122Z,101016.07
2017-09-18T20:39:33.806Z,101017.41
2017-09-18T20:42:05.048Z,101005.73
2017-09-18T20:44:37.204Z,101009.39
2017-09-18T20:47:10.238Z,101007.86
2017-09-18T20:49:44.721Z,101007.23
2017-09-18T20:52:19.067Z,101010.11
2017-09-18T20:54:52.698Z,101011.98
2017-09-18T20:57:25.489Z,101017.25
2017-09-18T20:59:58.295Z,101010.69
2017-09-18T21:02:29.694Z,101006.53
2017-09-18T21:05:02.255Z,101012.34
2017-09-18T21:07:32.826Z,101007.73
2017-09-18T21:10:04.589Z,101013.54
2017-09-18T21:12:37.184Z,101003.41
2017-09-18T21:15:09.625Z,101003.61
2017-09-18T21:17:41.210Z,101001.16
2017-09-18T21:20:15.197Z,101005.63
2017-09-18T21:22:48.034Z,101002.77
2017-09-18T21:25:21.155Z,100994.34
2017-09-18T21:27:56.340Z,100992.79
2017-09-18T21:30:29.062Z,100996.36
2017-09-18T21:33:03.050Z,100995.77
2017-09-18T21:35:36.697Z,100999.33
2017-09-18T21:38:10.613Z,100998.63
2017-09-18T21:40:42.895Z,100993.64
2017-09-18T21:43:15.602Z,100997.23
2017-09-18T21:45:46.701Z,100997.73
2017-09-18T21:48:21.228Z,101004.28
2017-09-18T21:50:52.219Z,100998.88
2017-09-18T21:53:22.420Z,101005.01
2017-09-18T21:55:56.772Z,101001.30
2017-09-18T21:58:29.319Z,101001.80
2017-09-18T22:01:05.073Z,100999.08
2017-09-18T22:03:36.221Z,101005.52
2017-09-18T22:06:06.937Z,101003.47
2017-09-18T22:08:39.054Z,101001.92
2017-09-18T22:11:13.688Z,101000.76
2017-09-18T22:13:45.973Z,100998.41
2017-09-18T22:16:18.257Z,101001.09
2017-09-18T22:18:51.829Z,101003.70
2017-09-18T22:21:27.292Z,100999.52
2017-09-18T22:23:58.491Z,101004.92
2017-09-18T22:26:30.382Z,101001.62
2017-09-18T22:29:02.740Z,100998.22
2017-09-18T22:31:34.336Z,100993.58
2017-09-18T22:34:06.635Z,100993.31
2017-09-18T22:36:40.537Z,100995.61
2017-09-18T22:39:15.808Z,100996.59
2017-09-18T22:41:49.139Z,100997.54
2017-09-18T22:44:21.283Z,100996.06
2017-09-18T22:46:52.667Z,100990.13
2017-09-18T22:49:26.227Z,100993.30
2017-09-18T22:51:58.877Z,100996.88
2017-09-18T22:54:31.673Z,101001.79
2017-09-18T22:57:04.259Z,100999.75
2017-09-18T22:59:36.171Z,101002.87
2017-09-18T23:02:08.616Z,100993.92
2017-09-18T23:04:40.772Z,100991.91
2017-09-18T23:07:13.409Z,100993.72
2017-09-18T23:09:44.978Z,101000.22
2017-09-18T23:12:15.012Z,100999.39
2017-09-18T23:14:47.911Z,100996.48
2017-09-18T23:17:23.318Z,100995.86
2017-09-18T23:19:56.557Z,100989.50
2017-09-18T23:22:31.955Z,100993.47
2017-09-18T23:25:05.357Z,100995.34
2017-09-18T23:27:38.207Z,100995.88
2017-09-18T23:30:14.005Z,100998.55
2017-09-18T23:32:49.771Z,100994.77
2017-09-18T23:35:23.926Z,100994.94
2017-09-18T23:37:57.613Z,100991.12
2017-09-18T23:40:29.848Z,100999.38
2017-09-18T23:43:01.921Z,100997.34
2017-09-18T23:45:34.309Z,100993.17
2017-09-18T23:48:07.919Z,100997.13
2017-09-18T23:50:39.906Z,100998.03
2017-09-18T23:53:11.424Z,101000.29
2017-09-18T23:55:42.905Z,100992.24
2017-09-18T23:58:17.176Z,100999.22
